createdAt,value
2018-12-25T00:00:01.815Z,10.80
2018-12-25T00:03:10.836Z,10.78
2018-12-25T00:04:15.771Z,11.30
2018-12-25T00:05:21.217Z,10.45
2018-12-25T00:07:50.350Z,10.65
2018-12-25T00:08:55.261Z,11.53
2018-12-25T00:10:00.483Z,12.45
2018-12-25T00:11:05.391Z,10.43
2018-12-25T00:12:10.565Z,10.70
2018-12-25T00:13:15.470Z,10.18
2018-12-25T00:14:20.390Z,11.00
2018-12-25T00:15:25.324Z,10.20
2018-12-25T00:16:30.595Z,10.70
2018-12-25T00:19:06.124Z,10.23
2018-12-25T00:20:25.425Z,10.25
2018-12-25T00:21:30.342Z,10.80
2018-12-25T00:23:59.756Z,10.32
2018-12-25T00:25:04.820Z,10.75
2018-12-25T00:27:34.717Z,10.53
2018-12-25T00:28:39.631Z,9.90
2018-12-25T00:29:44.529Z,11.35
2018-12-25T00:31:08.560Z,11.15
2018-12-25T00:32:13.465Z,9.73
2018-12-25T00:33:18.666Z,9.35
2018-12-25T00:35:47.540Z,9.85
2018-12-25T00:36:52.443Z,9.90
2018-12-25T00:37:57.631Z,10.40
2018-12-25T00:40:34.132Z,10.00
2018-12-25T00:41:39.051Z,9.60
2018-12-25T00:42:43.953Z,10.23
2018-12-25T00:43:49.169Z,10.80
2018-12-25T00:44:54.068Z,10.23
2018-12-25T00:46:10.982Z,9.50
2018-12-25T00:47:15.893Z,9.78
2018-12-25T00:48:20.810Z,9.60
2018-12-25T00:49:26.064Z,9.60
2018-12-25T00:50:30.964Z,9.48
2018-12-25T00:51:35.882Z,9.63
2018-12-25T00:52:40.796Z,9.30
2018-12-25T00:53:45.700Z,10.00
2018-12-25T00:56:32.683Z,8.50
2018-12-25T00:57:37.896Z,10.80
2018-12-25T00:58:42.800Z,9.73
2018-12-25T00:59:47.784Z,9.38
2018-12-25T01:00:52.694Z,9.00
2018-12-25T01:02:17.096Z,9.43
2018-12-25T01:03:22.011Z,9.00
2018-12-25T01:04:26.913Z,9.85
2018-12-25T01:06:56.080Z,8.85
2018-12-25T01:08:00.995Z,10.00
2018-12-25T01:09:27.549Z,9.65
2018-12-25T01:13:20.331Z,9.03
2018-12-25T01:14:25.239Z,8.75
2018-12-25T01:17:00.381Z,9.60
2018-12-25T01:19:29.214Z,9.20
2018-12-25T01:20:34.121Z,8.85
2018-12-25T01:21:39.024Z,9.78
2018-12-25T01:24:13.357Z,9.40
2018-12-25T01:26:42.765Z,8.58
2018-12-25T01:27:47.930Z,8.75
2018-12-25T01:28:52.933Z,8.68
2018-12-25T01:31:21.787Z,8.48
2018-12-25T01:32:26.690Z,9.05
2018-12-25T01:33:31.869Z,10.00
2018-12-25T01:34:36.791Z,10.03
2018-12-25T01:35:41.696Z,9.45
2018-12-25T01:36:46.598Z,8.23
2018-12-25T01:37:51.655Z,9.40
2018-12-25T01:38:56.805Z,9.08
2018-12-25T01:40:01.735Z,8.90
2018-12-25T01:41:07.285Z,8.43
2018-12-25T01:42:12.246Z,9.23
2018-12-25T01:43:36.284Z,9.85
2018-12-25T01:46:23.229Z,7.67
2018-12-25T01:47:28.127Z,8.13
2018-12-25T01:48:45.364Z,9.23
2018-12-25T01:49:50.287Z,8.28
2018-12-25T01:53:49.081Z,8.85
2018-12-25T01:56:37.232Z,8.08
2018-12-25T01:57:42.132Z,8.73
2018-12-25T01:58:47.117Z,8.88
2018-12-25T02:01:22.105Z,7.20
2018-12-25T02:02:26.999Z,8.78
2018-12-25T02:03:31.911Z,8.23
2018-12-25T02:06:37.392Z,7.55
2018-12-25T02:07:42.652Z,8.83
2018-12-25T02:08:47.926Z,8.30
2018-12-25T02:09:52.830Z,8.05
2018-12-25T02:10:57.733Z,8.00
2018-12-25T02:12:02.660Z,8.25
2018-12-25T02:13:07.555Z,7.95
2018-12-25T02:15:54.618Z,8.35
2018-12-25T02:17:18.923Z,8.60
2018-12-25T02:19:47.767Z,8.40
2018-12-25T02:20:52.685Z,8.98
2018-12-25T02:21:57.667Z,8.00
2018-12-25T02:23:02.584Z,8.65
2018-12-25T02:24:26.556Z,8.10
2018-12-25T02:25:50.852Z,9.00
2018-12-25T02:29:50.345Z,9.68
2018-12-25T02:30:55.255Z,8.75
2018-12-25T02:32:00.153Z,8.95
2018-12-25T02:34:53.361Z,8.68
2018-12-25T02:35:58.287Z,8.30
2018-12-25T02:37:22.648Z,8.48
2018-12-25T02:38:27.550Z,8.98
2018-12-25T02:39:32.816Z,9.23
2018-12-25T02:40:38.021Z,8.95
2018-12-25T02:44:42.168Z,8.80
2018-12-25T02:45:47.078Z,9.18
2018-12-25T02:48:15.917Z,8.80
2018-12-25T02:49:20.808Z,8.43
2018-12-25T02:50:37.482Z,8.78
2018-12-25T02:51:42.381Z,8.13
2018-12-25T02:52:47.287Z,9.45
2018-12-25T02:53:52.191Z,8.60
2018-12-25T02:54:57.096Z,8.38
2018-12-25T02:56:02.291Z,9.43
2018-12-25T02:57:07.188Z,9.65
2018-12-25T02:58:31.196Z,8.80
2018-12-25T03:02:23.939Z,8.90
2018-12-25T03:03:48.250Z,9.43
2018-12-25T03:04:53.432Z,8.80
2018-12-25T03:05:58.393Z,8.80
2018-12-25T03:07:03.308Z,8.75
2018-12-25T03:09:37.608Z,9.30
2018-12-25T03:10:42.513Z,9.53
2018-12-25T03:11:47.508Z,8.55
2018-12-25T03:12:53.020Z,9.43
2018-12-25T03:15:45.146Z,8.73
2018-12-25T03:16:50.051Z,8.45
2018-12-25T03:17:54.961Z,8.55
2018-12-25T03:20:24.136Z,8.53
2018-12-25T03:21:29.091Z,8.70
2018-12-25T03:22:53.171Z,8.80
2018-12-25T03:23:58.069Z,9.68
2018-12-25T03:25:02.981Z,10.00
2018-12-25T03:27:31.834Z,10.30
2018-12-25T03:31:27.456Z,8.78
2018-12-25T03:35:38.802Z,9.98
2018-12-25T03:36:43.704Z,9.10
2018-12-25T03:37:48.601Z,10.18
2018-12-25T03:38:53.505Z,9.78
2018-12-25T03:41:41.838Z,9.25
2018-12-25T03:42:46.776Z,9.20
2018-12-25T03:44:10.744Z,9.65
2018-12-25T03:45:15.642Z,9.43
2018-12-25T03:46:20.804Z,9.28
2018-12-25T03:48:55.948Z,9.40
2018-12-25T03:50:10.480Z,8.98
2018-12-25T03:51:46.272Z,9.53
2018-12-25T03:53:03.180Z,7.85
2018-12-25T03:55:38.094Z,9.90
2018-12-25T03:56:43.069Z,9.18
2018-12-25T03:57:47.965Z,9.20
2018-12-25T04:00:16.815Z,7.95
2018-12-25T04:01:21.737Z,8.70
2018-12-25T04:02:27.246Z,8.95
2018-12-25T04:03:32.146Z,9.03
2018-12-25T04:07:25.167Z,9.15
2018-12-25T04:08:30.070Z,8.50
2018-12-25T04:09:34.962Z,8.83
2018-12-25T04:10:39.852Z,9.45
2018-12-25T04:11:44.749Z,8.70
2018-12-25T04:13:08.807Z,9.95
2018-12-25T04:14:13.707Z,8.45
2018-12-25T04:16:42.891Z,8.65
2018-12-25T04:19:11.742Z,9.73
2018-12-25T04:20:19.938Z,9.30
2018-12-25T04:23:06.602Z,8.55
2018-12-25T04:24:11.501Z,9.13
2018-12-25T04:25:16.416Z,9.48
2018-12-25T04:26:21.316Z,9.10
2018-12-25T04:27:26.220Z,9.75
2018-12-25T04:28:31.136Z,8.50
2018-12-25T04:29:36.038Z,9.65
2018-12-25T04:30:40.962Z,8.70
2018-12-25T04:31:45.854Z,9.43
2018-12-25T04:32:50.756Z,9.38
2018-12-25T04:33:55.662Z,9.13
2018-12-25T04:35:00.564Z,8.13
2018-12-25T04:36:05.581Z,9.70
2018-12-25T04:37:10.490Z,8.08
2018-12-25T04:38:15.423Z,8.40
2018-12-25T04:40:44.257Z,9.18
2018-12-25T04:41:49.186Z,8.40
2018-12-25T04:42:54.087Z,8.50
2018-12-25T04:43:58.994Z,8.25
2018-12-25T04:45:24.410Z,8.70
2018-12-25T04:46:29.603Z,9.70
2018-12-25T04:49:04.324Z,8.98
2018-12-25T04:50:29.436Z,8.93
2018-12-25T04:51:54.779Z,8.10
2018-12-25T04:56:12.740Z,8.55
2018-12-25T04:57:17.641Z,8.70
2018-12-25T04:58:22.548Z,9.40
2018-12-25T04:59:46.522Z,8.70
2018-12-25T05:01:10.527Z,8.95
2018-12-25T05:03:39.373Z,8.20
2018-12-25T05:04:44.603Z,8.90
2018-12-25T05:06:08.727Z,8.70
2018-12-25T05:07:32.872Z,9.20
2018-12-25T05:10:02.758Z,9.18
2018-12-25T05:13:55.541Z,8.10
2018-12-25T05:15:00.822Z,9.28
2018-12-25T05:16:05.755Z,9.95
2018-12-25T05:17:10.660Z,9.68
2018-12-25T05:18:15.574Z,9.43
2018-12-25T05:19:39.700Z,9.20
2018-12-25T05:20:44.601Z,9.00
2018-12-25T05:21:49.519Z,9.25
2018-12-25T05:25:14.458Z,9.60
2018-12-25T05:27:43.303Z,9.70
2018-12-25T05:29:07.285Z,9.28
2018-12-25T05:30:12.180Z,10.05
2018-12-25T05:31:17.108Z,10.25
2018-12-25T05:32:22.615Z,9.48
2018-12-25T05:34:51.456Z,8.78
2018-12-25T05:35:56.700Z,10.32
2018-12-25T05:37:01.655Z,10.40
2018-12-25T05:39:30.495Z,8.80
2018-12-25T05:40:35.396Z,9.45
2018-12-25T05:41:40.297Z,8.73
2018-12-25T05:45:45.770Z,9.73
2018-12-25T05:46:50.669Z,9.70
2018-12-25T05:47:55.955Z,10.30
2018-12-25T05:50:24.816Z,9.88
2018-12-25T05:51:29.735Z,9.48
2018-12-25T05:52:34.951Z,8.95
2018-12-25T05:53:40.119Z,10.68
2018-12-25T05:55:04.086Z,10.10
2018-12-25T05:56:28.102Z,9.35
2018-12-25T05:57:45.379Z,9.68
2018-12-25T05:59:02.776Z,9.50
2018-12-25T06:00:27.356Z,9.85
2018-12-25T06:01:32.261Z,9.78
2018-12-25T06:02:37.177Z,10.58
2018-12-25T06:05:11.957Z,9.60
2018-12-25T06:06:16.866Z,10.25
2018-12-25T06:07:22.097Z,10.10
2018-12-25T06:08:27.013Z,10.43
2018-12-25T06:09:31.955Z,11.15
2018-12-25T06:10:36.908Z,10.72
2018-12-25T06:11:41.810Z,11.75
2018-12-25T06:14:10.675Z,10.20
2018-12-25T06:15:15.580Z,9.40
2018-12-25T06:16:39.874Z,9.60
2018-12-25T06:17:45.411Z,11.73
2018-12-25T06:20:14.958Z,10.10
2018-12-25T06:21:19.874Z,11.40
2018-12-25T06:22:43.913Z,10.35
2018-12-25T06:25:12.842Z,11.95
2018-12-25T06:26:17.751Z,10.98
2018-12-25T06:27:22.662Z,10.90
2018-12-25T06:28:27.585Z,11.28
2018-12-25T06:29:32.489Z,10.30
2018-12-25T06:30:56.601Z,10.38
2018-12-25T06:32:01.512Z,10.72
2018-12-25T06:34:53.952Z,11.48
2018-12-25T06:35:58.859Z,10.75
2018-12-25T06:37:22.896Z,11.22
2018-12-25T06:38:27.807Z,10.43
2018-12-25T06:39:32.711Z,10.15
2018-12-25T06:40:37.625Z,10.98
2018-12-25T06:41:42.546Z,11.38
2018-12-25T06:42:47.463Z,10.78
2018-12-25T06:43:52.368Z,11.53
2018-12-25T06:46:21.235Z,11.05
2018-12-25T06:47:26.142Z,12.50
2018-12-25T06:48:31.063Z,11.33
2018-12-25T06:49:35.969Z,10.93
2018-12-25T06:50:41.245Z,11.15
2018-12-25T06:51:46.174Z,11.50
2018-12-25T06:52:51.089Z,12.18
2018-12-25T06:53:56.369Z,11.25
2018-12-25T06:55:01.290Z,11.73
2018-12-25T06:56:06.203Z,11.03
2018-12-25T06:57:11.445Z,12.50
2018-12-25T06:58:16.909Z,11.43
2018-12-25T06:59:22.122Z,10.98
2018-12-25T07:01:51.052Z,10.35
2018-12-25T07:02:55.991Z,12.73
2018-12-25T07:04:20.058Z,10.68
2018-12-25T07:06:03.414Z,11.40
2018-12-25T07:07:08.595Z,11.70
2018-12-25T07:09:43.693Z,12.10
2018-12-25T07:10:48.603Z,12.20
2018-12-25T07:11:53.856Z,12.45
2018-12-25T07:12:58.761Z,12.28
2018-12-25T07:14:22.734Z,11.73
2018-12-25T07:15:46.737Z,10.95
2018-12-25T07:16:51.657Z,12.25
2018-12-25T07:19:20.510Z,12.93
2018-12-25T07:20:25.913Z,12.15
2018-12-25T07:21:30.847Z,13.00
2018-12-25T07:22:35.750Z,13.08
2018-12-25T07:23:40.672Z,12.80
2018-12-25T07:25:05.117Z,12.03
2018-12-25T07:26:10.387Z,12.35
2018-12-25T07:27:15.309Z,12.88
2018-12-25T07:28:20.217Z,13.35
2018-12-25T07:29:44.329Z,13.00
2018-12-25T07:30:49.249Z,12.75
2018-12-25T07:32:13.881Z,12.63
2018-12-25T07:33:18.808Z,12.98
2018-12-25T07:34:24.055Z,12.78
2018-12-25T07:35:29.270Z,13.32
2018-12-25T07:36:34.174Z,14.20
2018-12-25T07:37:39.092Z,13.25
2018-12-25T07:38:44.011Z,11.73
2018-12-25T07:39:48.922Z,14.45
2018-12-25T07:40:53.833Z,13.40
2018-12-25T07:42:37.339Z,13.50
2018-12-25T07:45:06.597Z,14.03
2018-12-25T07:47:35.467Z,14.03
2018-12-25T07:48:40.372Z,13.40
2018-12-25T07:49:45.288Z,14.28
2018-12-25T07:50:50.230Z,14.70
2018-12-25T07:51:55.159Z,13.45
2018-12-25T07:53:00.064Z,13.98
2018-12-25T07:54:24.175Z,14.95
2018-12-25T07:55:29.090Z,14.18
2018-12-25T07:56:34.036Z,15.35
2018-12-25T07:59:22.265Z,14.78
2018-12-25T08:03:21.674Z,14.25
2018-12-25T08:06:41.154Z,15.32
2018-12-25T08:07:46.153Z,13.80
2018-12-25T08:08:51.070Z,14.45
2018-12-25T08:11:19.927Z,14.68
2018-12-25T08:12:24.838Z,13.78
2018-12-25T08:13:29.840Z,14.43
2018-12-25T08:14:34.762Z,14.45
2018-12-25T08:17:04.570Z,14.30
2018-12-25T08:19:33.432Z,14.50
2018-12-25T08:20:38.341Z,15.00
2018-12-25T08:21:43.245Z,16.27
2018-12-25T08:22:48.164Z,15.45
2018-12-25T08:23:53.068Z,15.10
2018-12-25T08:24:57.993Z,15.72
2018-12-25T08:26:03.339Z,14.58
2018-12-25T08:27:27.911Z,15.15
2018-12-25T08:28:32.793Z,15.90
2018-12-25T08:29:37.722Z,13.20
2018-12-25T08:30:42.651Z,15.72
2018-12-25T08:32:26.006Z,15.03
2018-12-25T08:34:55.201Z,13.58
2018-12-25T08:36:00.126Z,13.22
2018-12-25T08:37:24.245Z,14.33
2018-12-25T08:38:29.758Z,15.25
2018-12-25T08:39:34.741Z,13.65
2018-12-25T08:40:58.715Z,14.43
2018-12-25T08:42:04.010Z,14.43
2018-12-25T08:43:09.243Z,13.65
2018-12-25T08:44:14.152Z,15.88
2018-12-25T08:45:19.052Z,14.40
2018-12-25T08:46:23.975Z,16.12
2018-12-25T08:47:28.896Z,14.35
2018-12-25T08:51:42.025Z,13.05
2018-12-25T08:54:17.370Z,12.68
2018-12-25T08:55:22.276Z,14.25
2018-12-25T08:56:27.186Z,13.70
2018-12-25T08:57:32.095Z,15.72
2018-12-25T08:58:37.026Z,13.72
2018-12-25T09:01:11.433Z,14.30
2018-12-25T09:06:40.642Z,14.98
2018-12-25T09:07:45.557Z,14.23
2018-12-25T09:08:50.477Z,13.72
2018-12-25T09:09:55.381Z,14.00
2018-12-25T09:12:24.258Z,14.30
2018-12-25T09:16:35.442Z,12.88
2018-12-25T09:17:40.366Z,14.15
2018-12-25T09:20:28.421Z,14.80
2018-12-25T09:22:57.296Z,13.15
2018-12-25T09:24:02.209Z,13.30
2018-12-25T09:25:07.120Z,12.90
2018-12-25T09:26:31.239Z,14.83
2018-12-25T09:27:55.273Z,14.28
2018-12-25T09:29:00.205Z,13.60
2018-12-25T09:30:26.014Z,12.18
2018-12-25T09:31:30.931Z,13.53
2018-12-25T09:34:00.108Z,14.25
2018-12-25T09:35:24.186Z,13.70
2018-12-25T09:36:48.294Z,12.95
2018-12-25T09:37:53.452Z,13.03
2018-12-25T09:39:17.571Z,13.35
2018-12-25T09:40:41.723Z,12.55
2018-12-25T09:41:46.957Z,12.78
2018-12-25T09:43:11.062Z,12.65
2018-12-25T09:44:15.977Z,12.65
2018-12-25T09:46:44.849Z,13.25
2018-12-25T09:49:33.232Z,13.00
2018-12-25T09:50:38.157Z,13.15
2018-12-25T09:53:07.041Z,14.68
2018-12-25T09:54:11.959Z,12.53
2018-12-25T09:55:16.876Z,13.45
2018-12-25T09:56:21.793Z,14.40
2018-12-25T09:57:45.937Z,12.30
2018-12-25T09:58:50.872Z,12.00
2018-12-25T09:59:55.786Z,13.05
2018-12-25T10:01:00.978Z,12.53
2018-12-25T10:02:05.906Z,12.98
2018-12-25T10:03:10.822Z,12.53
2018-12-25T10:04:15.839Z,13.85
2018-12-25T10:07:04.148Z,12.50
2018-12-25T10:08:20.839Z,13.90
2018-12-25T10:09:44.842Z,13.30
2018-12-25T10:11:07.733Z,12.15
2018-12-25T10:12:12.661Z,12.73
2018-12-25T10:14:41.521Z,12.43
2018-12-25T10:15:46.437Z,11.80
2018-12-25T10:16:51.649Z,12.05
2018-12-25T10:17:56.867Z,12.28
2018-12-25T10:20:25.727Z,11.95
2018-12-25T10:21:30.946Z,12.37
2018-12-25T10:22:35.852Z,12.80
2018-12-25T10:23:59.885Z,12.18
2018-12-25T10:25:23.996Z,11.30
2018-12-25T10:26:28.917Z,11.85
2018-12-25T10:27:34.207Z,12.37
2018-12-25T10:28:39.116Z,11.38
2018-12-25T10:29:44.026Z,12.43
2018-12-25T10:30:48.951Z,11.73
2018-12-25T10:31:54.460Z,11.65
2018-12-25T10:34:29.120Z,11.12
2018-12-25T10:35:34.350Z,10.88
2018-12-25T10:36:58.322Z,12.33
2018-12-25T10:39:27.188Z,11.08
2018-12-25T10:40:32.120Z,10.78
2018-12-25T10:41:37.033Z,11.53
2018-12-25T10:44:05.955Z,12.25
2018-12-25T10:45:10.858Z,11.60
2018-12-25T10:46:15.788Z,10.50
2018-12-25T10:48:44.645Z,11.78
2018-12-25T10:49:49.840Z,12.37
2018-12-25T10:51:13.882Z,12.45
2018-12-25T10:52:18.886Z,12.47
2018-12-25T10:53:23.801Z,11.10
2018-12-25T10:54:29.029Z,12.73
2018-12-25T10:56:57.872Z,12.73
2018-12-25T10:58:04.593Z,11.12
2018-12-25T10:59:48.170Z,11.35
2018-12-25T11:02:21.812Z,11.85
2018-12-25T11:03:26.769Z,11.12
2018-12-25T11:04:32.801Z,11.15
2018-12-25T11:05:37.717Z,11.00
2018-12-25T11:07:01.828Z,10.53
2018-12-25T11:08:06.768Z,12.18
2018-12-25T11:09:11.693Z,11.05
2018-12-25T11:10:28.765Z,11.80
2018-12-25T11:12:57.627Z,10.82
2018-12-25T11:15:26.497Z,11.28
2018-12-25T11:16:31.416Z,11.15
2018-12-25T11:19:00.274Z,11.05
2018-12-25T11:20:24.337Z,10.95
2018-12-25T11:21:29.262Z,11.57
2018-12-25T11:22:34.169Z,11.03
2018-12-25T11:23:39.181Z,11.18
2018-12-25T11:24:44.065Z,11.97
2018-12-25T11:25:48.981Z,10.48
2018-12-25T11:29:21.517Z,9.75
2018-12-25T11:30:26.435Z,11.08
2018-12-25T11:31:50.421Z,10.95
2018-12-25T11:36:08.773Z,9.83
2018-12-25T11:37:13.926Z,11.83
2018-12-25T11:38:18.867Z,11.50
2018-12-25T11:39:23.840Z,10.68
2018-12-25T11:40:29.052Z,11.90
2018-12-25T11:41:33.983Z,9.68
2018-12-25T11:42:38.908Z,11.38
2018-12-25T11:43:44.143Z,11.12
2018-12-25T11:44:49.050Z,10.23
2018-12-25T11:46:13.060Z,10.75
2018-12-25T11:47:18.364Z,11.38
2018-12-25T11:48:23.236Z,10.25
2018-12-25T11:49:28.148Z,10.45
2018-12-25T11:51:57.016Z,10.20
2018-12-25T11:54:32.437Z,11.00
2018-12-25T11:57:01.285Z,10.65
2018-12-25T11:59:30.827Z,10.15
2018-12-25T12:00:35.754Z,10.30
2018-12-25T12:01:59.878Z,9.30
2018-12-25T12:05:05.707Z,9.63
2018-12-25T12:09:10.025Z,10.85
2018-12-25T12:10:14.931Z,10.28
2018-12-25T12:11:20.120Z,10.20
2018-12-25T12:13:43.388Z,10.85
2018-12-25T12:16:12.253Z,10.05
2018-12-25T12:17:17.161Z,9.78
2018-12-25T12:18:22.065Z,10.18
2018-12-25T12:19:26.982Z,10.85
2018-12-25T12:20:31.899Z,11.33
2018-12-25T12:23:00.755Z,11.80
2018-12-25T12:24:05.972Z,11.08
2018-12-25T12:25:30.122Z,9.75
2018-12-25T12:26:35.027Z,9.45
2018-12-25T12:27:39.949Z,11.08
2018-12-25T12:30:27.931Z,11.18
2018-12-25T12:31:33.153Z,10.23
2018-12-25T12:32:38.353Z,10.43
2018-12-25T12:33:43.579Z,11.10
2018-12-25T12:34:48.465Z,11.55
2018-12-25T12:35:53.745Z,10.50
2018-12-25T12:38:28.528Z,11.63
2018-12-25T12:39:35.110Z,11.43
2018-12-25T12:40:40.577Z,11.85
2018-12-25T12:42:06.081Z,12.37
2018-12-25T12:43:10.943Z,11.68
2018-12-25T12:44:15.869Z,11.83
2018-12-25T12:46:44.986Z,12.40
2018-12-25T12:49:13.870Z,10.60
2018-12-25T12:50:18.792Z,11.18
2018-12-25T12:51:24.037Z,12.28
2018-12-25T12:52:28.949Z,11.80
2018-12-25T12:53:34.197Z,11.25
2018-12-25T12:56:03.060Z,11.78
2018-12-25T12:57:27.982Z,11.30
2018-12-25T12:58:52.334Z,12.45
2018-12-25T12:59:57.599Z,11.80
2018-12-25T13:01:02.521Z,11.30
2018-12-25T13:02:07.436Z,12.25
2018-12-25T13:04:36.293Z,11.00
2018-12-25T13:05:41.223Z,10.95
2018-12-25T13:06:46.932Z,10.90
2018-12-25T13:07:51.854Z,12.25
2018-12-25T13:08:56.748Z,11.15
2018-12-25T13:11:43.183Z,11.53
2018-12-25T13:12:48.081Z,11.75
2018-12-25T13:13:53.004Z,10.95
2018-12-25T13:15:09.501Z,11.30
2018-12-25T13:16:33.477Z,11.83
2018-12-25T13:17:38.385Z,11.08
2018-12-25T13:18:43.299Z,12.63
2018-12-25T13:19:48.232Z,12.40
2018-12-25T13:20:53.464Z,12.10
2018-12-25T13:21:58.382Z,11.50
2018-12-25T13:23:03.301Z,12.50
2018-12-25T13:25:32.177Z,11.28
2018-12-25T13:26:37.101Z,11.48
2018-12-25T13:27:42.302Z,11.50
2018-12-25T13:28:47.219Z,11.70
2018-12-25T13:29:52.143Z,13.35
2018-12-25T13:32:28.016Z,12.28
2018-12-25T13:34:57.663Z,11.40
2018-12-25T13:36:41.960Z,13.15
2018-12-25T13:37:46.913Z,12.45
2018-12-25T13:40:15.775Z,12.20
2018-12-25T13:41:20.696Z,12.50
2018-12-25T13:47:24.432Z,12.10
2018-12-25T13:48:29.334Z,12.28
2018-12-25T13:49:34.631Z,12.73
2018-12-25T13:50:39.563Z,13.45
2018-12-25T13:51:44.482Z,12.20
2018-12-25T13:54:13.335Z,12.60
2018-12-25T13:55:18.265Z,11.05
2018-12-25T13:56:23.180Z,13.28
2018-12-25T13:57:28.102Z,11.28
2018-12-25T13:58:33.017Z,13.15
2018-12-25T14:01:19.618Z,13.00
2018-12-25T14:02:24.547Z,13.28
2018-12-25T14:03:29.443Z,13.00
2018-12-25T14:04:34.816Z,11.97
2018-12-25T14:05:39.748Z,13.88
2018-12-25T14:08:14.878Z,12.82
2018-12-25T14:09:20.145Z,13.93
2018-12-25T14:11:49.460Z,12.30
2018-12-25T14:14:18.350Z,12.68
2018-12-25T14:15:24.665Z,12.65
2018-12-25T14:16:49.425Z,11.50
2018-12-25T14:17:54.344Z,12.13
2018-12-25T14:18:59.335Z,12.10
2018-12-25T14:20:23.470Z,12.10
2018-12-25T14:21:28.374Z,12.25
2018-12-25T14:22:33.602Z,11.22
2018-12-25T14:23:38.833Z,12.05
2018-12-25T14:26:27.112Z,11.70
2018-12-25T14:27:32.020Z,12.65
2018-12-25T14:28:56.658Z,12.40
2018-12-25T14:30:22.395Z,13.30
2018-12-25T14:31:46.566Z,13.00
2018-12-25T14:34:16.556Z,12.95
2018-12-25T14:35:41.529Z,13.13
2018-12-25T14:36:46.434Z,13.20
2018-12-25T14:37:51.355Z,13.10
2018-12-25T14:38:56.287Z,13.38
2018-12-25T14:40:19.062Z,13.75
2018-12-25T14:41:23.965Z,13.18
2018-12-25T14:42:48.263Z,14.38
2018-12-25T14:43:53.178Z,14.00
2018-12-25T14:44:58.105Z,14.47
2018-12-25T14:46:03.716Z,12.13
2018-12-25T14:48:32.566Z,13.10
2018-12-25T14:49:56.552Z,14.00
2018-12-25T14:52:47.323Z,12.98
2018-12-25T14:53:52.244Z,14.18
2018-12-25T14:54:57.520Z,12.90
2018-12-25T14:57:31.907Z,12.58
2018-12-25T14:58:36.808Z,13.48
2018-12-25T14:59:41.721Z,14.90
2018-12-25T15:00:46.684Z,14.00
2018-12-25T15:02:10.723Z,14.00
2018-12-25T15:03:15.635Z,13.38
2018-12-25T15:04:20.853Z,13.32
2018-12-25T15:05:25.756Z,14.10
2018-12-25T15:06:49.871Z,13.00
2018-12-25T15:10:48.135Z,11.93
2018-12-25T15:11:53.375Z,12.23
2018-12-25T15:14:40.410Z,12.33
2018-12-25T15:15:45.675Z,12.63
2018-12-25T15:16:50.605Z,13.05
2018-12-25T15:19:31.478Z,13.22
2018-12-25T15:20:36.397Z,13.28
2018-12-25T15:22:00.529Z,11.48
2018-12-25T15:23:05.453Z,10.93
2018-12-25T15:24:10.675Z,13.68
2018-12-25T15:27:19.517Z,11.68
2018-12-25T15:28:24.435Z,12.70
2018-12-25T15:29:29.942Z,12.13
2018-12-25T15:32:17.324Z,13.35
2018-12-25T15:33:41.647Z,12.20
2018-12-25T15:34:47.480Z,14.00
2018-12-25T15:38:40.280Z,12.37
2018-12-25T15:39:45.274Z,12.40
2018-12-25T15:42:15.813Z,13.48
2018-12-25T15:43:20.726Z,13.22
2018-12-25T15:44:25.721Z,14.00
2018-12-25T15:47:00.101Z,12.68
2018-12-25T15:48:41.622Z,12.07
2018-12-25T15:49:46.533Z,11.33
2018-12-25T15:50:51.441Z,12.30
2018-12-25T15:51:56.369Z,13.10
2018-12-25T15:53:01.660Z,11.75
2018-12-25T15:54:06.570Z,11.80
2018-12-25T15:55:11.473Z,12.33
2018-12-25T15:56:16.381Z,12.43
2018-12-25T15:58:46.194Z,13.62
2018-12-25T16:01:15.369Z,13.28
2018-12-25T16:02:39.475Z,12.75
2018-12-25T16:03:44.698Z,12.63
2018-12-25T16:04:49.859Z,12.95
2018-12-25T16:06:13.847Z,13.30
2018-12-25T16:07:18.759Z,12.05
2018-12-25T16:08:23.681Z,12.70
2018-12-25T16:09:28.596Z,13.65
2018-12-25T16:10:33.536Z,12.95
2018-12-25T16:11:38.794Z,12.68
2018-12-25T16:14:07.989Z,12.58
2018-12-25T16:15:12.901Z,12.30
2018-12-25T16:16:18.182Z,13.15
2018-12-25T16:17:42.220Z,13.85
2018-12-25T16:21:56.547Z,13.13
2018-12-25T16:23:01.474Z,13.18
2018-12-25T16:24:06.409Z,12.18
2018-12-25T16:25:11.721Z,13.35
2018-12-25T16:26:16.558Z,13.55
2018-12-25T16:28:51.868Z,13.22
2018-12-25T16:31:23.248Z,13.38
2018-12-25T16:32:28.258Z,13.55
2018-12-25T16:36:27.041Z,13.83
2018-12-25T16:37:31.946Z,12.85
2018-12-25T16:41:27.337Z,13.95
2018-12-25T16:47:01.646Z,13.05
2018-12-25T16:48:06.599Z,14.45
2018-12-25T16:50:35.797Z,15.25
2018-12-25T16:51:40.718Z,12.98
2018-12-25T16:52:45.649Z,13.38
2018-12-25T16:54:09.693Z,14.10
2018-12-25T16:55:14.605Z,13.93
2018-12-25T16:56:19.508Z,12.98
2018-12-25T16:57:24.732Z,12.73
2018-12-25T16:58:29.675Z,13.43
2018-12-25T16:59:34.587Z,13.65
2018-12-25T17:00:39.496Z,13.58
2018-12-25T17:01:44.415Z,13.28
2018-12-25T17:02:49.335Z,13.18
2018-12-25T17:05:43.381Z,13.38
2018-12-25T17:06:48.376Z,12.88
2018-12-25T17:08:30.195Z,13.55
2018-12-25T17:11:18.267Z,11.90
2018-12-25T17:13:47.141Z,12.55
2018-12-25T17:14:52.091Z,11.55
2018-12-25T17:15:57.024Z,12.60
2018-12-25T17:17:02.112Z,12.33
2018-12-25T17:18:07.015Z,12.58
2018-12-25T17:19:12.176Z,11.85
2018-12-25T17:20:17.117Z,12.85
2018-12-25T17:23:04.159Z,13.03
2018-12-25T17:24:21.421Z,11.83
2018-12-25T17:25:26.592Z,11.45
2018-12-25T17:26:31.538Z,12.45
2018-12-25T17:27:36.452Z,12.53
2018-12-25T17:28:41.382Z,12.93
2018-12-25T17:29:46.284Z,11.97
2018-12-25T17:31:10.829Z,12.35
2018-12-25T17:32:15.822Z,13.88
2018-12-25T17:33:21.010Z,13.22
2018-12-25T17:35:55.301Z,12.18
2018-12-25T17:37:00.553Z,13.32
2018-12-25T17:38:05.725Z,12.73
2018-12-25T17:40:34.601Z,12.10
2018-12-25T17:41:39.777Z,12.90
2018-12-25T17:42:44.689Z,13.00
2018-12-25T17:43:49.597Z,12.85
2018-12-25T17:44:54.517Z,12.40
2018-12-25T17:47:42.611Z,11.45
2018-12-25T17:48:47.528Z,12.10
2018-12-25T17:50:11.584Z,12.45
2018-12-25T17:51:16.494Z,12.10
2018-12-25T17:52:21.422Z,11.83
2018-12-25T17:54:56.753Z,12.75
2018-12-25T17:56:01.674Z,12.45
2018-12-25T17:58:33.334Z,13.05
2018-12-25T17:59:38.238Z,11.68
2018-12-25T18:00:43.174Z,12.82
2018-12-25T18:01:48.090Z,14.60
2018-12-25T18:02:53.010Z,15.55
2018-12-25T18:03:57.924Z,13.45
2018-12-25T18:05:02.822Z,11.60
2018-12-25T18:06:07.761Z,13.75
2018-12-25T18:07:12.673Z,13.65
2018-12-25T18:09:41.830Z,12.10
2018-12-25T18:10:47.032Z,13.13
2018-12-25T18:11:51.970Z,12.40
2018-12-25T18:12:56.890Z,12.65
2018-12-25T18:14:21.499Z,13.32
2018-12-25T18:15:26.413Z,14.25
2018-12-25T18:16:31.313Z,14.68
2018-12-25T18:17:36.234Z,14.50
2018-12-25T18:20:24.283Z,13.98
2018-12-25T18:21:48.277Z,12.53
2018-12-25T18:22:53.498Z,13.62
2018-12-25T18:24:19.312Z,14.00
2018-12-25T18:25:24.148Z,12.90
2018-12-25T18:30:39.926Z,13.93
2018-12-25T18:33:45.910Z,12.82
2018-12-25T18:36:14.859Z,13.72
2018-12-25T18:37:20.097Z,13.60
2018-12-25T18:38:25.025Z,14.53
2018-12-25T18:39:29.945Z,15.15
2018-12-25T18:40:34.879Z,13.95
2018-12-25T18:41:58.888Z,14.65
2018-12-25T18:43:03.790Z,14.35
2018-12-25T18:44:08.956Z,15.08
2018-12-25T18:45:53.526Z,13.30
2018-12-25T18:46:58.783Z,14.18
2018-12-25T18:48:03.983Z,15.38
2018-12-25T18:49:08.890Z,14.25
2018-12-25T18:50:13.809Z,15.08
2018-12-25T18:51:19.070Z,14.58
2018-12-25T18:52:24.313Z,14.10
2018-12-25T18:54:59.536Z,14.60
2018-12-25T18:56:04.459Z,15.30
2018-12-25T18:57:09.364Z,15.03
2018-12-25T18:58:14.269Z,15.10
2018-12-25T19:02:18.908Z,14.80
2018-12-25T19:03:23.823Z,15.72
2018-12-25T19:04:28.734Z,15.85
2018-12-25T19:05:33.648Z,14.93
2018-12-25T19:06:38.558Z,16.23
2018-12-25T19:07:43.493Z,15.68
2018-12-25T19:09:07.476Z,17.25
2018-12-25T19:10:31.591Z,15.38
2018-12-25T19:11:36.846Z,16.35
2018-12-25T19:12:41.794Z,15.50
2018-12-25T19:13:47.035Z,14.43
2018-12-25T19:15:30.304Z,15.25
2018-12-25T19:16:35.469Z,14.38
2018-12-25T19:17:40.369Z,17.15
2018-12-25T19:18:45.287Z,17.67
2018-12-25T19:19:50.219Z,15.88
2018-12-25T19:20:55.404Z,17.25
2018-12-25T19:22:00.316Z,17.40
2018-12-25T19:23:05.225Z,16.82
2018-12-25T19:24:10.159Z,16.17
2018-12-25T19:25:36.722Z,16.25
2018-12-25T19:26:41.904Z,16.50
2018-12-25T19:28:06.007Z,16.07
2018-12-25T19:29:22.926Z,16.57
2018-12-25T19:30:48.977Z,15.80
2018-12-25T19:33:18.101Z,17.42
2018-12-25T19:34:23.013Z,16.90